createdAt,value
2018-05-19T00:04:42.240Z,13.94
2018-05-19T00:13:11.434Z,13.75
2018-05-19T00:15:49.423Z,13.84
2018-05-19T00:59:14.761Z,13.76
2018-05-19T01:01:47.138Z,13.79
2018-05-19T01:04:16.317Z,13.83
2018-05-19T01:06:47.952Z,13.59
2018-05-19T01:09:19.713Z,13.79
2018-05-19T01:11:55.421Z,13.84
2018-05-19T01:14:25.804Z,13.44
2018-05-19T01:17:08.236Z,13.89
2018-05-19T01:19:40.573Z,13.94
2018-05-19T01:22:13.845Z,13.97
2018-05-19T01:24:42.634Z,13.90
2018-05-19T01:27:17.623Z,13.84
2018-05-19T01:29:50.600Z,13.83
2018-05-19T01:32:23.621Z,13.80
2018-05-19T01:34:55.722Z,13.79
2018-05-19T01:37:24.159Z,13.84
2018-05-19T01:39:58.345Z,13.88
2018-05-19T01:42:29.789Z,13.38
2018-05-19T01:45:04.810Z,13.91
2018-05-19T01:47:36.483Z,13.94
2018-05-19T01:52:40.351Z,13.99
2018-05-19T01:55:18.832Z,13.86
2018-05-19T01:57:49.239Z,13.75
2018-05-19T02:00:24.954Z,13.70
2018-05-19T02:02:55.004Z,13.64
2018-05-19T02:05:25.610Z,13.53
2018-05-19T02:08:05.014Z,13.49
2018-05-19T02:10:37.312Z,13.37
2018-05-19T02:13:05.078Z,13.31
2018-05-19T02:15:34.992Z,13.33
2018-05-19T02:18:06.808Z,13.30
2018-05-19T02:20:35.563Z,13.20
2018-05-19T02:23:04.078Z,13.11
2018-05-19T02:25:32.642Z,13.13
2018-05-19T02:28:05.343Z,13.18
2018-05-19T02:33:10.964Z,13.20
2018-05-19T02:35:40.741Z,13.18
2018-05-19T02:38:10.105Z,13.12
2018-05-19T02:40:37.930Z,13.03
2018-05-19T02:43:07.519Z,13.07
2018-05-19T02:45:37.059Z,12.90
2018-05-19T02:48:08.658Z,12.82
2018-05-19T02:50:41.531Z,12.73
2018-05-19T02:53:11.793Z,12.71
2018-05-19T02:55:41.206Z,12.75
2018-05-19T02:58:09.032Z,12.72
2018-05-19T03:00:38.686Z,12.65
2018-05-19T03:03:12.160Z,12.19
2018-05-19T03:05:43.041Z,12.46
2018-05-19T03:08:13.187Z,12.47
2018-05-19T03:10:47.104Z,12.52
2018-05-19T03:13:18.141Z,12.45
2018-05-19T03:15:49.563Z,12.36
2018-05-19T03:18:17.994Z,12.39
2018-05-19T03:20:47.800Z,12.38
2018-05-19T03:23:15.519Z,12.40
2018-05-19T03:25:50.189Z,12.44
2018-05-19T03:28:19.552Z,12.45
2018-05-19T03:30:47.981Z,12.48
2018-05-19T03:33:16.443Z,12.53
2018-05-19T03:35:48.104Z,12.62
2018-05-19T03:38:18.929Z,12.56
2018-05-19T03:40:50.313Z,12.51
2018-05-19T03:43:21.455Z,12.57
2018-05-19T03:45:51.514Z,12.48
2018-05-19T03:48:20.030Z,12.51
2018-05-19T03:50:52.180Z,12.46
2018-05-19T03:53:23.091Z,12.41
2018-05-19T03:55:53.515Z,12.45
2018-05-19T03:58:33.845Z,12.53
2018-05-19T04:01:13.458Z,12.44
2018-05-19T04:03:42.862Z,12.47
2018-05-19T04:06:11.393Z,12.49
2018-05-19T04:08:39.597Z,12.28
2018-05-19T04:11:07.651Z,12.29
2018-05-19T04:13:35.824Z,12.20
2018-05-19T04:16:07.374Z,12.38
2018-05-19T04:18:39.319Z,12.49
2018-05-19T04:21:09.134Z,12.53
2018-05-19T04:23:38.300Z,12.57
2018-05-19T04:26:07.233Z,12.49
2018-05-19T04:28:37.503Z,12.56
2018-05-19T04:31:07.012Z,12.62
2018-05-19T04:33:35.855Z,12.70
2018-05-19T04:38:37.336Z,12.93
2018-05-19T04:41:08.112Z,12.94
2018-05-19T04:46:31.349Z,12.94
2018-05-19T04:49:01.743Z,12.84
2018-05-19T04:51:30.449Z,12.92
2018-05-19T04:54:00.083Z,13.07
2018-05-19T04:56:31.599Z,13.13
2018-05-19T04:59:00.509Z,13.27
2018-05-19T05:01:31.161Z,13.29
2018-05-19T05:03:58.899Z,13.37
2018-05-19T05:06:27.968Z,13.45
2018-05-19T05:09:00.230Z,13.44
2018-05-19T05:11:31.825Z,13.47
2018-05-19T05:14:00.520Z,13.47
2018-05-19T05:16:29.067Z,13.52
2018-05-19T05:18:58.930Z,13.53
2018-05-19T05:21:28.635Z,13.66
2018-05-19T05:23:58.143Z,13.77
2018-05-19T05:26:26.830Z,13.85
2018-05-19T05:28:55.413Z,13.91
2018-05-19T05:31:24.564Z,13.97
2018-05-19T05:33:54.566Z,13.98
2018-05-19T05:36:23.167Z,13.93
2018-05-19T05:38:52.590Z,14.04
2018-05-19T05:41:20.961Z,14.13
2018-05-19T05:43:48.606Z,14.22
2018-05-19T05:46:16.947Z,14.34
2018-05-19T05:48:44.670Z,14.44
2018-05-19T05:51:12.798Z,14.52
2018-05-19T05:53:40.843Z,14.48
2018-05-19T05:56:10.663Z,14.59
2018-05-19T05:58:39.594Z,14.66
2018-05-19T06:01:08.329Z,14.73
2018-05-19T06:03:38.989Z,14.82
2018-05-19T06:06:07.620Z,14.94
2018-05-19T06:08:36.047Z,15.05
2018-05-19T06:11:03.652Z,15.16
2018-05-19T06:13:31.693Z,15.23
2018-05-19T06:15:59.417Z,15.28
2018-05-19T06:18:27.849Z,15.17
2018-05-19T06:20:56.081Z,14.98
2018-05-19T06:23:24.988Z,15.07
2018-05-19T06:25:52.716Z,15.19
2018-05-19T06:28:20.439Z,15.29
2018-05-19T06:30:49.017Z,15.38
2018-05-19T06:33:17.395Z,15.46
2018-05-19T06:35:45.158Z,15.50
2018-05-19T06:38:13.795Z,15.60
2018-05-19T06:40:42.475Z,15.67
2018-05-19T06:43:14.120Z,15.76
2018-05-19T06:45:46.792Z,15.85
2018-05-19T06:48:16.178Z,15.91
2018-05-19T06:50:45.633Z,16.07
2018-05-19T06:53:16.230Z,16.22
2018-05-19T06:55:45.496Z,16.52
2018-05-19T06:58:16.696Z,16.68
2018-05-19T07:00:46.544Z,16.81
2018-05-19T07:03:15.248Z,16.84
2018-05-19T07:05:44.172Z,16.93
2018-05-19T07:08:15.855Z,16.93
2018-05-19T07:10:44.293Z,16.93
2018-05-19T07:13:16.595Z,16.98
2018-05-19T07:15:44.816Z,17.06
2018-05-19T07:18:13.451Z,17.23
2018-05-19T07:20:57.488Z,17.34
2018-05-19T07:23:30.531Z,17.41
2018-05-19T07:26:04.467Z,17.33
2018-05-19T07:28:50.601Z,17.54
2018-05-19T07:31:18.455Z,17.66
2018-05-19T07:33:46.270Z,17.79
2018-05-19T07:36:21.216Z,17.97
2018-05-19T07:38:53.147Z,17.69
2018-05-19T07:41:23.892Z,17.87
2018-05-19T07:44:00.703Z,17.98
2018-05-19T07:46:30.015Z,18.18
2018-05-19T07:48:59.194Z,18.28
2018-05-19T07:51:28.527Z,18.25
2018-05-19T07:53:56.325Z,18.22
2018-05-19T07:56:24.032Z,18.37
2018-05-19T07:58:54.430Z,18.53
2018-05-19T08:01:30.354Z,18.64
2018-05-19T08:04:06.686Z,18.70
2018-05-19T08:06:35.080Z,18.58
2018-05-19T08:09:12.011Z,18.64
2018-05-19T08:11:40.600Z,18.72
2018-05-19T08:14:10.139Z,18.85
2018-05-19T08:21:59.482Z,19.12
2018-05-19T08:24:29.950Z,19.30
2018-05-19T08:27:07.933Z,19.38
2018-05-19T08:29:47.565Z,19.49
2018-05-19T08:32:17.659Z,19.31
2018-05-19T08:34:50.540Z,17.98
2018-05-19T08:37:21.965Z,18.10
2018-05-19T08:39:51.027Z,17.93
2018-05-19T08:42:21.452Z,18.30
2018-05-19T08:44:55.210Z,18.91
2018-05-19T08:47:24.832Z,19.52
2018-05-19T08:49:56.344Z,19.70
2018-05-19T08:52:32.648Z,19.56
2018-05-19T08:55:11.553Z,19.89
2018-05-19T08:57:42.275Z,19.93
2018-05-19T09:00:09.981Z,20.21
2018-05-19T09:02:41.530Z,19.79
2018-05-19T09:05:11.757Z,20.06
2018-05-19T09:07:54.340Z,20.21
2018-05-19T09:10:26.584Z,20.51
2018-05-19T09:12:55.702Z,20.74
2018-05-19T09:15:31.505Z,20.91
2018-05-19T09:17:59.825Z,21.16
2018-05-19T09:20:29.600Z,20.91
2018-05-19T09:23:04.887Z,20.79
2018-05-19T09:25:36.499Z,20.82
2018-05-19T09:28:24.754Z,20.34
2018-05-19T09:30:58.968Z,20.25
2018-05-19T09:33:38.851Z,20.09
2018-05-19T09:36:10.014Z,20.04
2018-05-19T09:48:49.976Z,21.27
2018-05-19T09:51:18.640Z,21.28
2018-05-19T09:53:52.513Z,20.89
2018-05-19T09:56:20.902Z,21.00
2018-05-19T09:58:52.988Z,21.30
2018-05-19T10:01:21.637Z,21.53
2018-05-19T10:03:50.849Z,21.34
2018-05-19T10:06:32.121Z,21.75
2018-05-19T10:09:02.399Z,21.89
2018-05-19T10:11:55.277Z,21.98
2018-05-19T10:17:32.864Z,20.72
2018-05-19T10:20:07.494Z,21.39
2018-05-19T10:22:49.850Z,21.84
2018-05-19T10:25:17.447Z,22.04
2018-05-19T10:27:53.292Z,21.49
2018-05-19T10:30:27.059Z,21.27
2018-05-19T10:33:01.250Z,21.28
2018-05-19T10:35:32.670Z,20.64
2018-05-19T10:41:03.272Z,21.87
2018-05-19T10:52:06.691Z,21.76
2018-05-19T11:38:51.994Z,20.36
2018-05-19T11:41:35.242Z,20.27
2018-05-19T11:44:09.980Z,20.61
2018-05-19T11:46:45.768Z,20.52
2018-05-19T11:52:06.723Z,20.51
2018-05-19T11:54:40.925Z,20.58
2018-05-19T11:57:25.062Z,20.78
2018-05-19T12:00:05.729Z,20.99
2018-05-19T12:02:57.594Z,20.81
2018-05-19T12:05:39.066Z,21.08
2018-05-19T12:08:09.941Z,21.22
2018-05-19T12:10:46.295Z,21.33
2018-05-19T12:13:19.820Z,21.42
2018-05-19T12:15:53.835Z,21.42
2018-05-19T12:18:21.638Z,21.38
2018-05-19T12:20:53.401Z,21.48
2018-05-19T12:45:40.362Z,21.05
2018-05-19T12:48:14.635Z,20.87
2018-05-19T12:50:48.471Z,20.84
2018-05-19T12:53:19.291Z,20.80
2018-05-19T12:55:49.231Z,20.63
2018-05-19T12:58:36.867Z,20.57
2018-05-19T13:36:47.181Z,20.72
2018-05-19T13:39:31.238Z,20.62
2018-05-19T13:42:17.049Z,20.71
2018-05-19T13:44:53.733Z,20.32
2018-05-19T13:47:28.239Z,20.31
2018-05-19T13:50:02.702Z,20.40
2018-05-19T13:52:36.745Z,20.59
2018-05-19T13:55:08.233Z,20.72
2018-05-19T13:57:40.305Z,20.73
2018-05-19T14:00:09.906Z,20.81
2018-05-19T14:02:45.896Z,20.78
2018-05-19T14:05:15.627Z,20.89
2018-05-19T14:07:44.661Z,21.01
2018-05-19T14:10:14.498Z,21.11
2018-05-19T14:12:42.208Z,21.04
2018-05-19T14:15:12.642Z,20.88
2018-05-19T14:17:42.840Z,21.03
2018-05-19T14:20:10.983Z,21.05
2018-05-19T14:22:44.601Z,21.22
2018-05-19T14:25:13.101Z,20.98
2018-05-19T14:27:42.822Z,21.06
2018-05-19T14:30:17.025Z,21.06
2018-05-19T14:32:49.454Z,21.42
2018-05-19T14:35:19.733Z,21.72
2018-05-19T14:37:54.080Z,22.04
2018-05-19T14:40:22.902Z,22.33
2018-05-19T14:42:50.577Z,22.54
2018-05-19T14:45:18.963Z,22.64
2018-05-19T14:47:46.691Z,22.24
2018-05-19T14:50:15.454Z,22.26
2018-05-19T14:52:43.971Z,22.42
2018-05-19T14:55:13.975Z,22.10
2018-05-19T14:57:43.182Z,22.32
2018-05-19T15:00:11.502Z,22.53
2018-05-19T15:02:41.197Z,22.79
2018-05-19T15:05:08.899Z,23.10
2018-05-19T15:07:36.935Z,23.28
2018-05-19T15:10:05.496Z,23.39
2018-05-19T15:12:33.576Z,23.54
2018-05-19T15:15:02.249Z,23.63
2018-05-19T15:17:32.392Z,23.68
2018-05-19T15:20:03.028Z,23.62
2018-05-19T15:22:37.673Z,23.39
2018-05-19T15:25:10.567Z,23.85
2018-05-19T15:30:37.315Z,23.79
2018-05-19T15:33:06.010Z,23.94
2018-05-19T15:35:37.080Z,24.02
2018-05-19T15:38:10.921Z,24.09
2018-05-19T15:40:47.860Z,23.91
2018-05-19T15:43:18.773Z,23.82
2018-05-19T16:03:15.450Z,23.31
2018-05-19T16:05:43.307Z,23.27
2018-05-19T16:08:22.270Z,23.20
2018-05-19T16:11:00.854Z,22.78
2018-05-19T16:13:34.460Z,22.46
2018-05-19T16:22:02.395Z,21.83
2018-05-19T16:24:32.082Z,21.68
2018-05-19T16:27:06.959Z,21.65
2018-05-19T16:29:37.536Z,21.68
2018-05-19T16:34:57.364Z,21.59
2018-05-19T16:37:31.717Z,21.51
2018-05-19T16:40:04.674Z,21.47
2018-05-19T16:42:42.763Z,21.26
2018-05-19T16:45:13.455Z,21.11
2018-05-19T16:47:42.656Z,20.85
2018-05-19T16:50:13.418Z,20.80
2018-05-19T16:52:45.509Z,20.76
2018-05-19T16:55:14.946Z,20.64
2018-05-19T16:57:42.666Z,20.54
2018-05-19T17:00:22.546Z,20.46
2018-05-19T17:02:50.354Z,20.43
2018-05-19T17:05:22.706Z,20.32
2018-05-19T17:07:59.277Z,20.27
2018-05-19T17:10:27.891Z,20.14
2018-05-19T17:12:57.260Z,20.08
2018-05-19T17:15:26.448Z,19.94
2018-05-19T17:17:57.690Z,19.94
2018-05-19T17:20:37.643Z,19.66
2018-05-19T17:23:05.403Z,19.72
2018-05-19T17:25:34.705Z,19.72
2018-05-19T17:28:05.072Z,19.72
2018-05-19T17:30:36.711Z,19.71
2018-05-19T17:33:05.466Z,19.57
2018-05-19T17:35:33.194Z,19.51
2018-05-19T17:38:04.567Z,19.32
2018-05-19T17:40:41.627Z,19.22
2018-05-19T17:43:14.930Z,19.13
2018-05-19T17:45:57.373Z,19.11
2018-05-19T17:48:25.231Z,19.04
2018-05-19T17:50:57.684Z,19.08
2018-05-19T17:53:25.802Z,18.91
2018-05-19T17:55:59.605Z,18.94
2018-05-19T17:58:28.295Z,18.76
2018-05-19T18:00:56.600Z,18.77
2018-05-19T18:03:28.399Z,18.74
2018-05-19T18:05:56.118Z,18.66
2018-05-19T18:08:28.067Z,18.40
2018-05-19T18:11:00.401Z,18.43
2018-05-19T18:13:40.718Z,18.34
2018-05-19T18:16:14.424Z,18.36
2018-05-19T18:18:53.239Z,18.33
2018-05-19T18:21:35.781Z,18.26
2018-05-19T18:24:21.426Z,18.32
2018-05-19T18:29:39.904Z,18.36
2018-05-19T18:32:19.249Z,18.27
2018-05-19T19:13:05.419Z,17.63
2018-05-19T19:15:51.664Z,17.38
2018-05-19T19:18:25.306Z,17.32
2018-05-19T19:20:58.029Z,17.28
2018-05-19T19:23:34.595Z,17.25
2018-05-19T19:26:05.698Z,17.19
2018-05-19T19:31:16.817Z,17.06
2018-05-19T19:33:53.374Z,17.03
2018-05-19T19:36:23.515Z,17.01
2018-05-19T19:38:58.787Z,17.00
2018-05-19T19:41:32.191Z,17.02
2018-05-19T19:44:07.454Z,16.96
2018-05-19T19:46:41.959Z,16.73
2018-05-19T19:49:14.023Z,16.94
2018-05-19T19:51:51.604Z,16.90
2018-05-19T19:54:20.146Z,16.77
2018-05-19T19:56:50.285Z,16.79
2018-05-19T20:02:00.465Z,16.80
2018-05-19T20:04:33.510Z,16.77
2018-05-19T20:07:05.117Z,16.75
2018-05-19T20:09:34.251Z,16.79
2018-05-19T20:12:04.648Z,16.74
2018-05-19T20:14:41.592Z,16.62
2018-05-19T20:17:12.459Z,16.77
2018-05-19T20:19:53.460Z,16.73
2018-05-19T20:22:25.089Z,16.64
2018-05-19T20:24:55.910Z,16.52
2018-05-19T20:27:23.814Z,16.44
2018-05-19T20:29:56.101Z,16.37
2018-05-19T20:32:26.518Z,16.38
2018-05-19T20:34:56.217Z,16.37
2018-05-19T20:37:28.977Z,16.28
2018-05-19T20:39:59.002Z,16.17
2018-05-19T20:42:29.352Z,16.20
2018-05-19T20:44:57.663Z,16.22
2018-05-19T20:47:26.749Z,16.23
2018-05-19T20:49:59.281Z,16.24
2018-05-19T20:52:30.650Z,16.27
2018-05-19T20:55:02.363Z,16.12
2018-05-19T20:57:34.216Z,16.09
2018-05-19T21:00:03.547Z,16.04
2018-05-19T21:02:32.221Z,15.98
2018-05-19T21:05:00.120Z,15.91
2018-05-19T21:07:27.929Z,15.88
2018-05-19T21:09:56.512Z,15.90
2018-05-19T21:12:25.447Z,15.91
2018-05-19T21:14:55.131Z,15.90
2018-05-19T21:17:26.352Z,15.82
2018-05-19T21:19:56.164Z,15.67
2018-05-19T21:22:26.322Z,15.60
2018-05-19T21:24:55.293Z,15.56
2018-05-19T21:27:25.077Z,15.53
2018-05-19T21:29:53.674Z,15.47
2018-05-19T21:32:24.636Z,15.37
2018-05-19T21:34:54.240Z,15.27
2018-05-19T21:37:23.318Z,15.11
2018-05-19T21:39:57.527Z,15.08
2018-05-19T21:42:25.229Z,14.99
2018-05-19T21:45:02.863Z,14.83
2018-05-19T21:47:30.626Z,14.77
2018-05-19T21:49:58.778Z,14.76
2018-05-19T21:52:27.388Z,14.75
2018-05-19T21:54:56.024Z,14.80
2018-05-19T21:57:23.696Z,14.73
2018-05-19T21:59:51.304Z,14.66
2018-05-19T22:02:19.927Z,14.71
2018-05-19T22:04:48.072Z,14.64
2018-05-19T22:07:15.781Z,14.57
2018-05-19T22:09:43.471Z,14.47
2018-05-19T22:12:11.285Z,14.35
2018-05-19T22:14:40.876Z,14.28
2018-05-19T22:17:08.446Z,14.31
2018-05-19T22:19:36.113Z,14.30
2018-05-19T22:22:03.767Z,14.35
2018-05-19T22:24:31.561Z,14.32
2018-05-19T22:27:00.292Z,14.34
2018-05-19T22:29:32.683Z,14.34
2018-05-19T22:32:01.395Z,14.25
2018-05-19T22:34:29.194Z,14.24
2018-05-19T22:36:56.921Z,14.20
2018-05-19T22:39:24.786Z,14.06
2018-05-19T22:41:52.381Z,14.02
2018-05-19T22:44:19.954Z,14.01
2018-05-19T22:46:48.609Z,14.01
2018-05-19T22:49:17.148Z,13.98
2018-05-19T22:51:45.518Z,13.88
2018-05-19T22:54:14.272Z,13.82
2018-05-19T22:56:41.924Z,13.84
2018-05-19T22:59:09.500Z,13.79
2018-05-19T23:01:37.182Z,13.78
2018-05-19T23:04:07.668Z,13.79
2018-05-19T23:06:36.087Z,13.74
2018-05-19T23:09:03.853Z,13.75
2018-05-19T23:11:31.493Z,13.73
2018-05-19T23:13:59.099Z,13.76
2018-05-19T23:16:26.831Z,13.61
2018-05-19T23:18:54.440Z,13.62
2018-05-19T23:21:21.982Z,13.51
2018-05-19T23:23:50.091Z,13.48
2018-05-19T23:26:18.718Z,13.60
2018-05-19T23:28:46.326Z,13.54
2018-05-19T23:31:14.973Z,13.48
2018-05-19T23:33:42.700Z,13.37
2018-05-19T23:36:10.324Z,13.29
2018-05-19T23:38:37.987Z,13.27
2018-05-19T23:41:05.662Z,13.30
2018-05-19T23:43:33.576Z,13.32
2018-05-19T23:46:01.328Z,13.32
2018-05-19T23:48:29.038Z,13.36
2018-05-19T23:50:57.681Z,13.29
2018-05-19T23:53:26.089Z,13.34
2018-05-19T23:55:55.131Z,13.37
2018-05-19T23:58:24.009Z,13.38
